sensor_id;sensor_type;location;lat;lon;timestamp;pressure;altitude;pressure_sealevel;temperature;humidity
60371;BME280;48550;40.588;49.684;2024-02-15T00:01:57;101709.47;;;6.37;84.93
60371;BME280;48550;40.588;49.684;2024-02-15T00:04:23;101714.53;;;6.21;84.84
60371;BME280;48550;40.588;49.684;2024-02-15T00:06:48;101718.72;;;6.05;85.71
60371;BME280;48550;40.588;49.684;2024-02-15T00:09:14;101705.44;;;6.09;85.92
60371;BME280;48550;40.588;49.684;2024-02-15T00:11:40;101698.28;;;6.13;86.06
60371;BME280;48550;40.588;49.684;2024-02-15T00:14:05;101703.53;;;6.13;85.72
60371;BME280;48550;40.588;49.684;2024-02-15T00:16:33;101683.75;;;6.25;85.85
60371;BME280;48550;40.588;49.684;2024-02-15T00:18:59;101686.00;;;6.13;85.33
60371;BME280;48550;40.588;49.684;2024-02-15T00:21:25;101674.34;;;6.21;85.38
60371;BME280;48550;40.588;49.684;2024-02-15T00:23:51;101669.63;;;6.08;85.34
60371;BME280;48550;40.588;49.684;2024-02-15T00:26:19;101665.16;;;6.10;85.65
60371;BME280;48550;40.588;49.684;2024-02-15T00:28:45;101667.22;;;6.04;85.53
60371;BME280;48550;40.588;49.684;2024-02-15T00:31:10;101645.66;;;5.97;86.10
60371;BME280;48550;40.588;49.684;2024-02-15T00:33:36;101641.75;;;5.85;86.51
60371;BME280;48550;40.588;49.684;2024-02-15T00:36:03;101614.78;;;5.83;86.47
60371;BME280;48550;40.588;49.684;2024-02-15T00:38:31;101645.84;;;6.13;85.78
60371;BME280;48550;40.588;49.684;2024-02-15T00:40:56;101651.84;;;5.94;86.17
60371;BME280;48550;40.588;49.684;2024-02-15T00:43:22;101660.72;;;5.92;86.47
60371;BME280;48550;40.588;49.684;2024-02-15T00:45:48;101664.38;;;5.88;86.78
60371;BME280;48550;40.588;49.684;2024-02-15T00:48:14;101647.41;;;5.96;87.17
60371;BME280;48550;40.588;49.684;2024-02-15T00:50:39;101637.13;;;5.92;87.02
60371;BME280;48550;40.588;49.684;2024-02-15T00:53:05;101627.81;;;5.85;87.48
60371;BME280;48550;40.588;49.684;2024-02-15T00:55:31;101639.25;;;5.82;87.62
60371;BME280;48550;40.588;49.684;2024-02-15T00:57:57;101635.66;;;5.85;87.59
60371;BME280;48550;40.588;49.684;2024-02-15T01:00:23;101625.19;;;5.85;87.82
60371;BME280;48550;40.588;49.684;2024-02-15T01:02:49;101626.69;;;5.90;87.41
60371;BME280;48550;40.588;49.684;2024-02-15T01:05:15;101638.22;;;5.86;87.69
60371;BME280;48550;40.588;49.684;2024-02-15T01:07:41;101644.19;;;5.90;87.92
60371;BME280;48550;40.588;49.684;2024-02-15T01:10:07;101650.94;;;5.95;87.83
60371;BME280;48550;40.588;49.684;2024-02-15T01:12:33;101663.75;;;6.03;87.65
60371;BME280;48550;40.588;49.684;2024-02-15T01:14:59;101663.94;;;5.98;87.51
60371;BME280;48550;40.588;49.684;2024-02-15T01:17:24;101663.16;;;5.95;87.99
60371;BME280;48550;40.588;49.684;2024-02-15T01:19:50;101651.06;;;5.92;87.75
60371;BME280;48550;40.588;49.684;2024-02-15T01:22:16;101667.75;;;5.90;88.13
60371;BME280;48550;40.588;49.684;2024-02-15T01:24:42;101682.53;;;5.92;88.09
60371;BME280;48550;40.588;49.684;2024-02-15T01:27:07;101691.66;;;6.04;88.31
60371;BME280;48550;40.588;49.684;2024-02-15T01:29:35;101700.91;;;6.13;87.54
60371;BME280;48550;40.588;49.684;2024-02-15T01:32:00;101695.13;;;6.25;87.60
60371;BME280;48550;40.588;49.684;2024-02-15T01:34:28;101696.19;;;6.40;87.51
60371;BME280;48550;40.588;49.684;2024-02-15T01:36:54;101705.28;;;6.52;86.44
60371;BME280;48550;40.588;49.684;2024-02-15T01:39:19;101707.06;;;6.51;86.12
60371;BME280;48550;40.588;49.684;2024-02-15T01:41:48;101712.19;;;6.54;86.42
60371;BME280;48550;40.588;49.684;2024-02-15T01:44:21;101726.06;;;6.57;85.84
60371;BME280;48550;40.588;49.684;2024-02-15T01:46:50;101710.47;;;6.53;85.66
60371;BME280;48550;40.588;49.684;2024-02-15T01:49:21;101709.63;;;6.53;86.04
60371;BME280;48550;40.588;49.684;2024-02-15T01:51:49;101724.09;;;6.43;85.94
60371;BME280;48550;40.588;49.684;2024-02-15T01:54:16;101721.66;;;6.38;86.21
60371;BME280;48550;40.588;49.684;2024-02-15T01:56:43;101702.44;;;6.17;86.54
60371;BME280;48550;40.588;49.684;2024-02-15T01:59:10;101715.03;;;6.29;86.90
60371;BME280;48550;40.588;49.684;2024-02-15T02:01:36;101716.56;;;6.35;86.62
60371;BME280;48550;40.588;49.684;2024-02-15T02:04:03;101718.44;;;6.31;86.68
60371;BME280;48550;40.588;49.684;2024-02-15T02:06:30;101720.09;;;6.34;86.93
60371;BME280;48550;40.588;49.684;2024-02-15T02:08:57;101717.59;;;6.31;86.47
60371;BME280;48550;40.588;49.684;2024-02-15T02:11:24;101712.41;;;6.29;86.50
60371;BME280;48550;40.588;49.684;2024-02-15T02:13:50;101731.16;;;6.41;86.40
60371;BME280;48550;40.588;49.684;2024-02-15T02:16:27;101736.41;;;6.41;87.05
60371;BME280;48550;40.588;49.684;2024-02-15T02:19:00;101736.44;;;6.60;86.66
60371;BME280;48550;40.588;49.684;2024-02-15T02:21:26;101729.88;;;6.89;85.68
60371;BME280;48550;40.588;49.684;2024-02-15T02:23:55;101726.28;;;6.71;85.32
60371;BME280;48550;40.588;49.684;2024-02-15T02:26:22;101743.53;;;6.58;85.77
60371;BME280;48550;40.588;49.684;2024-02-15T02:28:49;101729.47;;;6.40;86.74
60371;BME280;48550;40.588;49.684;2024-02-15T02:31:15;101725.53;;;6.29;87.26
60371;BME280;48550;40.588;49.684;2024-02-15T02:33:50;101732.78;;;6.43;87.09
60371;BME280;48550;40.588;49.684;2024-02-15T02:36:20;101735.63;;;6.39;87.13
60371;BME280;48550;40.588;49.684;2024-02-15T02:38:46;101736.69;;;6.53;86.97
60371;BME280;48550;40.588;49.684;2024-02-15T02:41:16;101732.31;;;6.54;86.06
60371;BME280;48550;40.588;49.684;2024-02-15T02:43:42;101740.41;;;6.49;86.22
60371;BME280;48550;40.588;49.684;2024-02-15T02:46:11;101743.16;;;6.46;86.35
60371;BME280;48550;40.588;49.684;2024-02-15T02:48:38;101755.41;;;6.46;86.75
60371;BME280;48550;40.588;49.684;2024-02-15T02:51:05;101747.19;;;6.53;86.55
60371;BME280;48550;40.588;49.684;2024-02-15T02:53:31;101753.44;;;6.51;86.34
60371;BME280;48550;40.588;49.684;2024-02-15T02:55:57;101753.31;;;6.54;86.60
60371;BME280;48550;40.588;49.684;2024-02-15T02:58:23;101752.78;;;6.46;86.54
60371;BME280;48550;40.588;49.684;2024-02-15T03:00:49;101753.19;;;6.57;86.66
60371;BME280;48550;40.588;49.684;2024-02-15T03:03:16;101770.75;;;6.55;86.88
60371;BME280;48550;40.588;49.684;2024-02-15T03:05:41;101768.84;;;6.59;86.65
60371;BME280;48550;40.588;49.684;2024-02-15T03:08:14;101778.41;;;6.60;86.25
60371;BME280;48550;40.588;49.684;2024-02-15T03:10:41;101777.78;;;6.54;86.32
60371;BME280;48550;40.588;49.684;2024-02-15T03:13:08;101796.28;;;6.51;86.34
60371;BME280;48550;40.588;49.684;2024-02-15T03:15:37;101788.66;;;6.45;87.00
60371;BME280;48550;40.588;49.684;2024-02-15T03:18:03;101801.66;;;6.48;86.41
60371;BME280;48550;40.588;49.684;2024-02-15T03:20:37;101811.69;;;6.59;86.22
60371;BME280;48550;40.588;49.684;2024-02-15T03:23:03;101815.16;;;6.60;86.54
60371;BME280;48550;40.588;49.684;2024-02-15T03:25:29;101821.34;;;6.59;85.63
60371;BME280;48550;40.588;49.684;2024-02-15T03:27:57;101807.34;;;6.58;85.70
60371;BME280;48550;40.588;49.684;2024-02-15T03:30:26;101800.28;;;6.60;85.83
60371;BME280;48550;40.588;49.684;2024-02-15T03:32:54;101805.59;;;6.59;85.29
60371;BME280;48550;40.588;49.684;2024-02-15T03:35:22;101800.69;;;6.51;85.06
60371;BME280;48550;40.588;49.684;2024-02-15T03:37:48;101804.47;;;6.44;85.72
60371;BME280;48550;40.588;49.684;2024-02-15T03:40:18;101808.09;;;6.41;85.43
60371;BME280;48550;40.588;49.684;2024-02-15T03:42:44;101812.41;;;6.63;85.60
60371;BME280;48550;40.588;49.684;2024-02-15T03:45:11;101818.84;;;6.56;85.03
60371;BME280;48550;40.588;49.684;2024-02-15T03:47:37;101827.09;;;6.67;84.84
60371;BME280;48550;40.588;49.684;2024-02-15T03:50:06;101831.72;;;6.62;84.58
60371;BME280;48550;40.588;49.684;2024-02-15T03:52:36;101831.53;;;6.65;84.81
60371;BME280;48550;40.588;49.684;2024-02-15T03:55:02;101837.16;;;6.57;84.48
60371;BME280;48550;40.588;49.684;2024-02-15T03:57:29;101853.84;;;6.75;85.38
60371;BME280;48550;40.588;49.684;2024-02-15T03:59:54;101856.09;;;6.84;84.85
60371;BME280;48550;40.588;49.684;2024-02-15T04:02:23;101854.09;;;6.89;83.69
60371;BME280;48550;40.588;49.684;2024-02-15T04:04:53;101867.63;;;6.80;83.72
60371;BME280;48550;40.588;49.684;2024-02-15T04:07:21;101858.06;;;6.79;83.78
60371;BME280;48550;40.588;49.684;2024-02-15T04:09:47;101878.44;;;6.93;84.14
60371;BME280;48550;40.588;49.684;2024-02-15T04:12:13;101882.22;;;6.87;83.85
60371;BME280;48550;40.588;49.684;2024-02-15T04:14:43;101880.34;;;6.89;83.61
60371;BME280;48550;40.588;49.684;2024-02-15T04:17:12;101883.44;;;6.79;84.02
60371;BME280;48550;40.588;49.684;2024-02-15T04:19:47;101880.63;;;6.83;84.03
60371;BME280;48550;40.588;49.684;2024-02-15T04:22:15;101892.84;;;6.84;84.00
60371;BME280;48550;40.588;49.684;2024-02-15T04:24:44;101881.81;;;6.76;84.16
60371;BME280;48550;40.588;49.684;2024-02-15T04:27:11;101895.59;;;6.81;84.20
60371;BME280;48550;40.588;49.684;2024-02-15T04:29:40;101896.94;;;6.90;84.12
60371;BME280;48550;40.588;49.684;2024-02-15T04:32:10;101878.25;;;6.98;83.67
60371;BME280;48550;40.588;49.684;2024-02-15T04:34:36;101870.50;;;6.95;83.91
60371;BME280;48550;40.588;49.684;2024-02-15T04:37:03;101866.31;;;6.90;83.98
60371;BME280;48550;40.588;49.684;2024-02-15T04:39:35;101871.84;;;6.84;84.33
60371;BME280;48550;40.588;49.684;2024-02-15T04:42:02;101878.84;;;6.84;84.33
60371;BME280;48550;40.588;49.684;2024-02-15T04:44:28;101887.72;;;6.81;84.46
60371;BME280;48550;40.588;49.684;2024-02-15T04:46:54;101886.31;;;6.93;84.54
60371;BME280;48550;40.588;49.684;2024-02-15T04:49:20;101890.53;;;6.97;83.60
60371;BME280;48550;40.588;49.684;2024-02-15T04:51:46;101897.13;;;7.06;84.03
60371;BME280;48550;40.588;49.684;2024-02-15T04:54:13;101918.41;;;7.00;83.29
60371;BME280;48550;40.588;49.684;2024-02-15T04:56:40;101916.69;;;7.19;83.45
60371;BME280;48550;40.588;49.684;2024-02-15T04:59:07;101917.88;;;7.12;83.72
60371;BME280;48550;40.588;49.684;2024-02-15T05:01:40;101912.88;;;7.06;83.11
60371;BME280;48550;40.588;49.684;2024-02-15T05:04:11;101918.88;;;7.10;83.16
60371;BME280;48550;40.588;49.684;2024-02-15T05:06:39;101915.59;;;7.04;83.44
60371;BME280;48550;40.588;49.684;2024-02-15T05:09:05;101927.28;;;6.97;83.69
60371;BME280;48550;40.588;49.684;2024-02-15T05:11:39;101945.53;;;7.00;83.66
60371;BME280;48550;40.588;49.684;2024-02-15T05:14:12;101928.72;;;7.04;83.45
60371;BME280;48550;40.588;49.684;2024-02-15T05:16:38;101937.78;;;6.97;83.79
60371;BME280;48550;40.588;49.684;2024-02-15T05:19:11;101945.53;;;7.00;83.66
60371;BME280;48550;40.588;49.684;2024-02-15T05:21:37;101945.59;;;6.99;83.80
60371;BME280;48550;40.588;49.684;2024-02-15T05:24:04;101958.16;;;6.92;84.53
60371;BME280;48550;40.588;49.684;2024-02-15T05:26:30;101957.00;;;6.98;84.72
60371;BME280;48550;40.588;49.684;2024-02-15T05:28:55;101944.59;;;6.81;85.03
60371;BME280;48550;40.588;49.684;2024-02-15T05:31:21;101938.09;;;6.69;84.78
60371;BME280;48550;40.588;49.684;2024-02-15T05:33:51;101938.88;;;6.71;84.74
60371;BME280;48550;40.588;49.684;2024-02-15T05:36:19;101934.63;;;6.68;85.16
60371;BME280;48550;40.588;49.684;2024-02-15T05:38:47;101928.25;;;6.53;85.64
60371;BME280;48550;40.588;49.684;2024-02-15T05:41:13;101939.41;;;6.59;85.72
60371;BME280;48550;40.588;49.684;2024-02-15T05:43:39;101946.06;;;6.45;85.71
60371;BME280;48550;40.588;49.684;2024-02-15T05:46:07;101948.03;;;6.40;85.40
60371;BME280;48550;40.588;49.684;2024-02-15T05:48:34;101933.63;;;6.50;85.37
60371;BME280;48550;40.588;49.684;2024-02-15T05:51:06;101957.41;;;6.46;85.33
60371;BME280;48550;40.588;49.684;2024-02-15T05:53:32;101943.06;;;6.54;85.10
60371;BME280;48550;40.588;49.684;2024-02-15T05:56:02;101941.75;;;6.65;84.76
60371;BME280;48550;40.588;49.684;2024-02-15T05:58:30;101943.28;;;6.70;84.34
60371;BME280;48550;40.588;49.684;2024-02-15T06:00:57;101949.06;;;6.79;84.05
60371;BME280;48550;40.588;49.684;2024-02-15T06:03:29;101935.34;;;6.93;83.67
60371;BME280;48550;40.588;49.684;2024-02-15T06:05:58;101940.28;;;6.80;83.42
60371;BME280;48550;40.588;49.684;2024-02-15T06:08:25;101943.88;;;6.77;83.69
60371;BME280;48550;40.588;49.684;2024-02-15T06:10:52;101944.44;;;6.63;84.56
60371;BME280;48550;40.588;49.684;2024-02-15T06:13:18;101940.41;;;6.77;84.30
60371;BME280;48550;40.588;49.684;2024-02-15T06:15:44;101938.28;;;6.64;84.49
60371;BME280;48550;40.588;49.684;2024-02-15T06:18:12;101948.19;;;6.58;85.12
60371;BME280;48550;40.588;49.684;2024-02-15T06:20:40;101958.50;;;6.62;84.83
60371;BME280;48550;40.588;49.684;2024-02-15T06:23:06;101961.34;;;6.78;83.90
60371;BME280;48550;40.588;49.684;2024-02-15T06:25:34;101978.81;;;6.79;83.60
60371;BME280;48550;40.588;49.684;2024-02-15T06:28:00;101989.94;;;6.64;83.47
60371;BME280;48550;40.588;49.684;2024-02-15T06:30:32;101987.75;;;6.53;84.05
60371;BME280;48550;40.588;49.684;2024-02-15T06:33:16;101991.47;;;6.47;85.08
60371;BME280;48550;40.588;49.684;2024-02-15T06:36:04;101996.66;;;6.49;84.64
60371;BME280;48550;40.588;49.684;2024-02-15T06:38:48;102012.97;;;6.35;85.18
60371;BME280;48550;40.588;49.684;2024-02-15T06:41:32;102007.88;;;6.30;85.10
60371;BME280;48550;40.588;49.684;2024-02-15T06:43:58;102001.75;;;6.30;85.32
60371;BME280;48550;40.588;49.684;2024-02-15T06:46:23;102019.66;;;6.42;85.02
60371;BME280;48550;40.588;49.684;2024-02-15T06:48:49;102016.84;;;6.47;84.23
60371;BME280;48550;40.588;49.684;2024-02-15T06:51:15;102016.50;;;6.56;84.13
60371;BME280;48550;40.588;49.684;2024-02-15T06:53:41;102015.81;;;6.73;83.24
60371;BME280;48550;40.588;49.684;2024-02-15T06:56:10;102033.78;;;6.82;82.39
60371;BME280;48550;40.588;49.684;2024-02-15T06:58:36;102042.09;;;6.94;82.11
60371;BME280;48550;40.588;49.684;2024-02-15T07:01:02;102042.09;;;6.94;81.65
60371;BME280;48550;40.588;49.684;2024-02-15T07:03:28;102049.28;;;6.88;81.51
60371;BME280;48550;40.588;49.684;2024-02-15T07:06:04;102057.56;;;7.00;80.92
60371;BME280;48550;40.588;49.684;2024-02-15T07:08:33;102070.03;;;6.95;81.46
60371;BME280;48550;40.588;49.684;2024-02-15T07:10:59;102058.59;;;7.18;80.50
60371;BME280;48550;40.588;49.684;2024-02-15T07:13:25;102044.00;;;7.11;80.88
60371;BME280;48550;40.588;49.684;2024-02-15T07:15:52;102047.50;;;7.11;80.87
60371;BME280;48550;40.588;49.684;2024-02-15T07:18:17;102026.88;;;7.02;80.71
60371;BME280;48550;40.588;49.684;2024-02-15T07:20:48;102001.13;;;6.89;81.14
60371;BME280;48550;40.588;49.684;2024-02-15T07:23:13;102007.75;;;6.78;81.78
60371;BME280;48550;40.588;49.684;2024-02-15T07:25:41;101983.72;;;6.87;81.30
60371;BME280;48550;40.588;49.684;2024-02-15T07:28:07;101985.00;;;6.99;81.08
60371;BME280;48550;40.588;49.684;2024-02-15T07:30:34;101974.63;;;6.96;80.16
60371;BME280;48550;40.588;49.684;2024-02-15T07:32:59;101983.28;;;7.18;79.61
60371;BME280;48550;40.588;49.684;2024-02-15T07:35:25;102005.19;;;7.17;79.15
60371;BME280;48550;40.588;49.684;2024-02-15T07:37:54;101995.28;;;6.83;79.90
60371;BME280;48550;40.588;49.684;2024-02-15T07:40:26;102013.59;;;6.84;80.34
60371;BME280;48550;40.588;49.684;2024-02-15T07:42:56;102017.25;;;6.80;80.59
60371;BME280;48550;40.588;49.684;2024-02-15T07:45:23;102002.44;;;6.79;80.88
60371;BME280;48550;40.588;49.684;2024-02-15T07:47:49;101962.34;;;6.96;80.49
60371;BME280;48550;40.588;49.684;2024-02-15T07:50:18;101959.13;;;6.89;80.41
60371;BME280;48550;40.588;49.684;2024-02-15T07:52:49;101958.34;;;6.87;81.00
60371;BME280;48550;40.588;49.684;2024-02-15T07:55:15;101960.44;;;6.79;80.91
60371;BME280;48550;40.588;49.684;2024-02-15T07:57:40;101958.66;;;6.80;80.95
60371;BME280;48550;40.588;49.684;2024-02-15T08:00:07;101961.88;;;6.86;81.04
60371;BME280;48550;40.588;49.684;2024-02-15T08:02:39;101945.34;;;6.84;80.93
60371;BME280;48550;40.588;49.684;2024-02-15T08:05:10;101945.78;;;6.94;80.40
60371;BME280;48550;40.588;49.684;2024-02-15T08:07:45;101930.50;;;7.04;80.05
60371;BME280;48550;40.588;49.684;2024-02-15T08:10:11;101937.47;;;6.84;80.40
60371;BME280;48550;40.588;49.684;2024-02-15T08:12:43;101936.66;;;6.82;80.37
60371;BME280;48550;40.588;49.684;2024-02-15T08:15:09;101950.72;;;6.81;80.80
60371;BME280;48550;40.588;49.684;2024-02-15T08:17:42;101919.09;;;6.84;80.57
60371;BME280;48550;40.588;49.684;2024-02-15T08:20:10;101908.31;;;6.90;80.10
60371;BME280;48550;40.588;49.684;2024-02-15T08:22:36;101910.56;;;6.79;79.99
60371;BME280;48550;40.588;49.684;2024-02-15T08:25:09;101939.13;;;6.65;80.97
60371;BME280;48550;40.588;49.684;2024-02-15T08:27:42;101933.75;;;6.68;81.27
60371;BME280;48550;40.588;49.684;2024-02-15T08:30:10;101911.47;;;6.78;81.39
60371;BME280;48550;40.588;49.684;2024-02-15T08:32:39;101899.13;;;6.60;81.59
60371;BME280;48550;40.588;49.684;2024-02-15T08:35:08;101903.34;;;6.64;81.39
60371;BME280;48550;40.588;49.684;2024-02-15T08:37:35;101908.84;;;6.58;81.62
60371;BME280;48550;40.588;49.684;2024-02-15T08:40:04;101909.16;;;6.50;82.22
60371;BME280;48550;40.588;49.684;2024-02-15T08:42:45;101920.69;;;6.46;82.18
60371;BME280;48550;40.588;49.684;2024-02-15T08:45:14;101932.28;;;6.62;81.99
60371;BME280;48550;40.588;49.684;2024-02-15T08:47:40;101923.13;;;6.71;81.09
60371;BME280;48550;40.588;49.684;2024-02-15T08:50:09;101925.63;;;6.95;80.83
60371;BME280;48550;40.588;49.684;2024-02-15T08:52:36;101917.13;;;6.89;80.39
60371;BME280;48550;40.588;49.684;2024-02-15T08:55:06;101928.13;;;6.77;81.10
60371;BME280;48550;40.588;49.684;2024-02-15T08:57:33;101920.13;;;6.80;81.00
60371;BME280;48550;40.588;49.684;2024-02-15T08:59:59;101934.19;;;6.79;81.81
60371;BME280;48550;40.588;49.684;2024-02-15T09:02:25;101935.97;;;6.57;81.53
60371;BME280;48550;40.588;49.684;2024-02-15T09:04:51;101943.84;;;6.57;81.79
60371;BME280;48550;40.588;49.684;2024-02-15T09:07:16;101926.31;;;6.59;81.71
60371;BME280;48550;40.588;49.684;2024-02-15T09:09:42;101918.56;;;6.56;81.99
60371;BME280;48550;40.588;49.684;2024-02-15T09:12:08;101912.75;;;6.47;82.37
60371;BME280;48550;40.588;49.684;2024-02-15T09:14:34;101906.13;;;6.39;82.77
60371;BME280;48550;40.588;49.684;2024-02-15T09:17:02;101893.69;;;6.22;83.18
60371;BME280;48550;40.588;49.684;2024-02-15T09:19:36;101912.09;;;6.20;83.64
60371;BME280;48550;40.588;49.684;2024-02-15T09:22:02;101917.84;;;6.30;83.85
60371;BME280;48550;40.588;49.684;2024-02-15T09:24:32;101925.22;;;6.42;83.38
60371;BME280;48550;40.588;49.684;2024-02-15T09:27:01;101936.75;;;6.38;83.31
60371;BME280;48550;40.588;49.684;2024-02-15T09:29:30;101925.41;;;6.38;83.03
60371;BME280;48550;40.588;49.684;2024-02-15T09:31:58;101922.72;;;6.39;83.25
60371;BME280;48550;40.588;49.684;2024-02-15T09:34:24;101926.50;;;6.32;83.42
60371;BME280;48550;40.588;49.684;2024-02-15T09:36:50;101940.66;;;6.28;83.20
60371;BME280;48550;40.588;49.684;2024-02-15T09:39:16;101929.63;;;6.42;83.07
60371;BME280;48550;40.588;49.684;2024-02-15T09:41:43;101925.16;;;6.44;82.75
60371;BME280;48550;40.588;49.684;2024-02-15T09:44:09;101933.56;;;6.52;82.28
60371;BME280;48550;40.588;49.684;2024-02-15T09:46:37;101942.16;;;6.56;82.37
60371;BME280;48550;40.588;49.684;2024-02-15T09:49:07;101934.44;;;6.52;82.32
60371;BME280;48550;40.588;49.684;2024-02-15T09:51:33;101958.53;;;6.40;82.91
60371;BME280;48550;40.588;49.684;2024-02-15T09:54:00;101964.25;;;6.28;83.72
60371;BME280;48550;40.588;49.684;2024-02-15T09:56:28;101964.94;;;6.33;83.86
60371;BME280;48550;40.588;49.684;2024-02-15T09:58:58;101969.16;;;6.37;83.77
60371;BME280;48550;40.588;49.684;2024-02-15T10:01:25;101957.94;;;6.33;83.75
60371;BME280;48550;40.588;49.684;2024-02-15T10:03:52;101954.44;;;6.33;83.45
60371;BME280;48550;40.588;49.684;2024-02-15T10:06:19;101949.47;;;6.27;83.84
60371;BME280;48550;40.588;49.684;2024-02-15T10:08:46;101933.03;;;6.22;84.11
60371;BME280;48550;40.588;49.684;2024-02-15T10:11:12;101931.53;;;6.16;84.57
60371;BME280;48550;40.588;49.684;2024-02-15T10:13:38;101937.13;;;6.07;84.88
60371;BME280;48550;40.588;49.684;2024-02-15T10:16:20;101925.63;;;6.11;84.86
60371;BME280;48550;40.588;49.684;2024-02-15T10:18:50;101934.44;;;6.08;85.07
60371;BME280;48550;40.588;49.684;2024-02-15T10:21:27;101917.59;;;6.14;84.99
60371;BME280;48550;40.588;49.684;2024-02-15T10:24:08;101928.59;;;6.02;85.65
60371;BME280;48550;40.588;49.684;2024-02-15T10:26:35;101923.34;;;6.02;85.91
60371;BME280;48550;40.588;49.684;2024-02-15T10:29:11;101919.06;;;5.99;85.98
60371;BME280;48550;40.588;49.684;2024-02-15T10:31:38;101921.13;;;5.91;85.98
60371;BME280;48550;40.588;49.684;2024-02-15T10:34:05;101919.91;;;5.99;85.93
60371;BME280;48550;40.588;49.684;2024-02-15T10:36:33;101901.50;;;6.01;86.11
60371;BME280;48550;40.588;49.684;2024-02-15T10:39:13;101894.94;;;6.13;86.09
60371;BME280;48550;40.588;49.684;2024-02-15T10:41:52;101921.63;;;6.23;85.50
60371;BME280;48550;40.588;49.684;2024-02-15T10:44:24;101912.59;;;6.30;85.24
60371;BME280;48550;40.588;49.684;2024-02-15T10:46:52;101896.94;;;6.28;85.12
60371;BME280;48550;40.588;49.684;2024-02-15T10:49:23;101891.41;;;6.34;84.79
60371;BME280;48550;40.588;49.684;2024-02-15T10:51:56;101907.97;;;6.37;84.59
60371;BME280;48550;40.588;49.684;2024-02-15T10:54:47;101898.03;;;6.23;85.24
60371;BME280;48550;40.588;49.684;2024-02-15T10:57:20;101895.94;;;6.31;84.93
60371;BME280;48550;40.588;49.684;2024-02-15T10:59:57;101911.50;;;6.35;84.77
60371;BME280;48550;40.588;49.684;2024-02-15T11:05:29;101925.69;;;6.09;85.71
60371;BME280;48550;40.588;49.684;2024-02-15T11:07:58;101917.34;;;5.98;86.08
60371;BME280;48550;40.588;49.684;2024-02-15T11:10:25;101913.59;;;6.05;86.26
60371;BME280;48550;40.588;49.684;2024-02-15T11:12:52;101909.50;;;5.98;86.41
60371;BME280;48550;40.588;49.684;2024-02-15T11:15:45;101908.94;;;6.12;86.48
60371;BME280;48550;40.588;49.684;2024-02-15T11:18:44;101903.56;;;5.93;86.29
60371;BME280;48550;40.588;49.684;2024-02-15T11:21:15;101906.94;;;5.95;86.49
60371;BME280;48550;40.588;49.684;2024-02-15T11:23:41;101939.88;;;6.04;86.46
60371;BME280;48550;40.588;49.684;2024-02-15T11:26:45;101948.72;;;6.23;85.79
60371;BME280;48550;40.588;49.684;2024-02-15T11:32:36;101928.97;;;6.14;85.56
60371;BME280;48550;40.588;49.684;2024-02-15T11:35:14;101926.34;;;6.14;85.43
60371;BME280;48550;40.588;49.684;2024-02-15T11:40:16;101936.34;;;6.05;86.19
60371;BME280;48550;40.588;49.684;2024-02-15T11:42:42;101958.94;;;6.07;85.82
60371;BME280;48550;40.588;49.684;2024-02-15T11:45:08;101972.13;;;6.06;85.90
60371;BME280;48550;40.588;49.684;2024-02-15T11:47:39;101975.13;;;5.95;86.17
60371;BME280;48550;40.588;49.684;2024-02-15T11:50:11;101982.41;;;5.87;86.63
60371;BME280;48550;40.588;49.684;2024-02-15T11:52:48;101966.13;;;5.78;86.79
60371;BME280;48550;40.588;49.684;2024-02-15T11:55:18;101978.09;;;5.86;86.67
60371;BME280;48550;40.588;49.684;2024-02-15T11:58:01;101979.19;;;5.80;86.82
60371;BME280;48550;40.588;49.684;2024-02-15T12:00:34;101972.31;;;5.77;86.95
60371;BME280;48550;40.588;49.684;2024-02-15T12:03:19;101954.25;;;5.70;86.88
60371;BME280;48550;40.588;49.684;2024-02-15T12:06:03;101958.28;;;5.78;86.74
60371;BME280;48550;40.588;49.684;2024-02-15T12:08:49;101937.53;;;5.72;87.00
60371;BME280;48550;40.588;49.684;2024-02-15T12:11:34;101945.34;;;5.74;86.94
60371;BME280;48550;40.588;49.684;2024-02-15T12:14:18;101935.72;;;5.74;87.25
60371;BME280;48550;40.588;49.684;2024-02-15T12:17:04;101930.72;;;5.68;87.36
60371;BME280;48550;40.588;49.684;2024-02-15T12:19:50;101924.53;;;5.69;87.27
60371;BME280;48550;40.588;49.684;2024-02-15T12:22:22;101924.66;;;5.66;87.32
60371;BME280;48550;40.588;49.684;2024-02-15T12:25:02;101932.06;;;5.78;87.54
60371;BME280;48550;40.588;49.684;2024-02-15T12:27:46;101941.53;;;5.82;86.79
60371;BME280;48550;40.588;49.684;2024-02-15T12:30:17;101949.63;;;5.76;86.90
60371;BME280;48550;40.588;49.684;2024-02-15T12:32:50;101948.25;;;5.66;87.10
60371;BME280;48550;40.588;49.684;2024-02-15T12:35:18;101946.66;;;5.62;87.06
60371;BME280;48550;40.588;49.684;2024-02-15T12:40:34;101963.34;;;5.59;87.78
60371;BME280;48550;40.588;49.684;2024-02-15T12:43:00;101969.47;;;5.60;87.58
60371;BME280;48550;40.588;49.684;2024-02-15T12:45:26;101957.81;;;5.67;87.53
60371;BME280;48550;40.588;49.684;2024-02-15T12:47:56;101963.19;;;5.64;87.04
60371;BME280;48550;40.588;49.684;2024-02-15T12:50:27;101975.50;;;5.62;87.20
60371;BME280;48550;40.588;49.684;2024-02-15T12:52:53;101971.59;;;5.72;86.99
60371;BME280;48550;40.588;49.684;2024-02-15T12:55:21;101974.22;;;5.72;86.86
60371;BME280;48550;40.588;49.684;2024-02-15T12:57:52;101988.44;;;5.67;86.46
60371;BME280;48550;40.588;49.684;2024-02-15T13:00:23;101987.59;;;5.64;86.81
60371;BME280;48550;40.588;49.684;2024-02-15T13:02:54;101990.88;;;5.71;86.72
60371;BME280;48550;40.588;49.684;2024-02-15T13:05:21;102000.59;;;5.68;86.72
60371;BME280;48550;40.588;49.684;2024-02-15T13:07:49;102005.63;;;5.74;86.95
60371;BME280;48550;40.588;49.684;2024-02-15T13:10:15;101994.34;;;5.72;86.39
60371;BME280;48550;40.588;49.684;2024-02-15T13:12:41;101996.22;;;5.68;86.28